Time;durP1;ratioP1;P1;durP2;ratioP2;P2;SDS_P1;SDS_P2;PMS_P1;PMS_P2;Temp;Humidity;BMP_temperature;BMP_pressure;BME280_temperature;BME280_humidity;BME280_pressure;Samples;Min_cycle;Max_cycle;Signal;HPM_P1;HPM_P2
2020/12/09 00:00:42;;;;;;;58.20;27.50;;;;;;;-0.95;98.72;100724.53;4817794;29;20546;-84
2020/12/09 00:03:13;;;;;;;56.78;28.08;;;;;;;-0.85;98.61;100725.00;4806162;29;20053;-84
2020/12/09 00:05:59;;;;;;;66.50;30.17;;;;;;;-1.00;98.56;100725.66;4812492;29;20042;-84
2020/12/09 00:08:27;;;;;;;60.88;29.13;;;;;;;-0.91;98.28;100730.56;4812324;29;20049;-84
2020/12/09 00:10:55;;;;;;;57.65;27.63;;;;;;;-0.93;98.36;100725.34;4826061;29;20057;-84
2020/12/09 00:13:23;;;;;;;59.30;30.70;;;;;;;-1.01;98.33;100724.78;4819472;29;20050;-84
2020/12/09 00:15:52;;;;;;;71.13;30.85;;;;;;;-1.11;98.71;100729.59;4830344;29;20066;-84
2020/12/09 00:18:23;;;;;;;59.75;29.08;;;;;;;-0.97;98.46;100720.22;4818221;29;20413;-85
2020/12/09 00:20:52;;;;;;;64.10;29.15;;;;;;;-0.92;97.88;100736.75;4833532;29;20601;-84
2020/12/09 00:23:17;;;;;;;67.18;30.45;;;;;;;-1.07;98.14;100733.84;4836971;29;20050;-84
2020/12/09 00:25:43;;;;;;;72.80;30.17;;;;;;;-1.08;98.13;100736.53;4818942;29;20493;-84
2020/12/09 00:28:09;;;;;;;65.47;29.15;;;;;;;-1.11;98.45;100740.16;4816988;29;20055;-84
2020/12/09 00:30:38;;;;;;;58.83;28.02;;;;;;;-1.16;98.41;100736.88;4821156;29;20112;-84
2020/12/09 00:33:03;;;;;;;65.70;27.63;;;;;;;-1.27;98.49;100744.38;4820382;29;20041;-85
2020/12/09 00:35:35;;;;;;;73.55;28.55;;;;;;;-1.37;98.56;100743.03;4821774;29;20050;-85
2020/12/09 00:38:00;;;;;;;69.30;28.90;;;;;;;-1.34;98.92;100733.22;4833389;29;20103;-86
2020/12/09 00:40:25;;;;;;;54.50;25.20;;;;;;;-1.29;98.82;100740.94;4808241;29;20046;-84
2020/12/09 00:42:51;;;;;;;67.15;28.42;;;;;;;-1.23;98.52;100738.06;4816066;29;20065;-85
2020/12/09 00:45:16;;;;;;;64.13;27.70;;;;;;;-1.13;98.67;100741.19;4816712;29;20046;-84
2020/12/09 00:47:44;;;;;;;58.78;26.13;;;;;;;-1.14;98.39;100740.31;4820634;29;20050;-85
2020/12/09 00:53:03;;;;;;;67.25;29.67;;;;;;;-1.24;98.90;100746.88;4822396;29;20065;-85
2020/12/09 00:55:31;;;;;;;76.47;29.02;;;;;;;-1.27;99.17;100747.00;4830594;29;20057;-85
2020/12/09 00:57:59;;;;;;;60.50;27.35;;;;;;;-1.24;99.12;100738.97;4808995;29;20053;-86
2020/12/09 01:00:44;;;;;;;63.90;26.38;;;;;;;-1.16;99.06;100736.88;4818919;29;20404;-85
2020/12/09 01:03:13;;;;;;;69.43;29.42;;;;;;;-1.18;99.23;100743.13;4829559;29;20046;-85
2020/12/09 01:05:47;;;;;;;67.50;27.23;;;;;;;-1.19;99.01;100747.56;4821397;29;20046;-85
2020/12/09 01:08:12;;;;;;;68.15;28.95;;;;;;;-1.22;99.24;100745.06;4802443;29;20050;-85
2020/12/09 01:10:38;;;;;;;63.45;28.23;;;;;;;-1.13;99.25;100749.94;4820033;29;20058;-86
2020/12/09 01:13:08;;;;;;;55.75;26.20;;;;;;;-1.09;99.24;100748.91;4819251;29;20057;-85
2020/12/09 01:15:42;;;;;;;60.03;26.50;;;;;;;-1.12;98.93;100749.03;4822657;29;20053;-86
2020/12/09 01:18:10;;;;;;;56.75;25.88;;;;;;;-1.10;99.17;100746.34;4819339;29;20535;-87
2020/12/09 01:20:46;;;;;;;53.75;24.60;;;;;;;-1.09;99.19;100743.63;4811772;29;20061;-85
2020/12/09 01:23:14;;;;;;;49.80;23.38;;;;;;;-1.14;98.95;100750.88;4806770;29;20045;-85
2020/12/09 01:25:59;;;;;;;53.95;24.48;;;;;;;-1.19;98.70;100758.13;4820541;29;20058;-85
2020/12/09 01:28:27;;;;;;;46.15;22.90;;;;;;;-1.19;99.21;100757.25;4810400;29;20124;-86
2020/12/09 01:30:55;;;;;;;56.47;25.05;;;;;;;-1.18;98.84;100754.53;4812811;29;20042;-85
2020/12/09 01:33:21;;;;;;;46.97;22.25;;;;;;;-1.28;98.56;100762.00;4801115;29;20090;-86
2020/12/09 01:35:49;;;;;;;49.63;22.50;;;;;;;-1.43;99.05;100760.84;4828730;29;20448;-86
2020/12/09 01:38:14;;;;;;;45.88;22.02;;;;;;;-1.43;99.16;100763.50;4841160;29;20125;-86
2020/12/09 01:40:43;;;;;;;50.28;21.70;;;;;;;-1.47;98.80;100767.16;4809513;29;20072;-85
2020/12/09 01:43:14;;;;;;;53.50;25.13;;;;;;;-1.44;98.48;100769.69;4828765;29;20053;-86
2020/12/09 01:45:47;;;;;;;61.22;24.50;;;;;;;-1.46;98.83;100775.94;4834424;29;20049;-86
2020/12/09 01:48:12;;;;;;;62.33;23.17;;;;;;;-1.55;99.08;100779.81;4834316;29;20047;-86
2020/12/09 01:50:40;;;;;;;54.30;23.90;;;;;;;-1.62;99.02;100778.31;4822291;29;20049;-86
2020/12/09 01:53:06;;;;;;;53.60;24.23;;;;;;;-1.58;98.63;100777.28;4834783;29;20453;-86
2020/12/09 01:55:39;;;;;;;50.55;22.92;;;;;;;-1.60;98.98;100774.72;4824166;29;20174;-86
2020/12/09 01:58:07;;;;;;;48.38;21.88;;;;;;;-1.66;98.85;100779.38;4820365;29;20567;-86
2020/12/09 02:00:35;;;;;;;45.45;20.83;;;;;;;-1.63;99.21;100769.56;4823131;29;20058;-86
2020/12/09 02:03:02;;;;;;;47.03;22.27;;;;;;;-1.67;98.99;100777.66;4822796;29;20513;-86
2020/12/09 02:05:30;;;;;;;51.15;24.38;;;;;;;-1.69;98.95;100784.75;4819441;29;20049;-86
2020/12/09 02:08:02;;;;;;;46.03;22.27;;;;;;;-1.67;99.12;100769.75;4823013;29;20058;-86
2020/12/09 02:10:30;;;;;;;48.58;22.23;;;;;;;-1.63;99.30;100768.72;4822678;29;20050;-86
2020/12/09 02:12:59;;;;;;;51.65;20.40;;;;;;;-1.64;98.84;100775.75;4814567;29;20050;-86
2020/12/09 02:15:37;;;;;;;52.37;22.67;;;;;;;-1.77;98.93;100780.66;4821867;29;20046;-86
2020/12/09 02:18:13;;;;;;;39.53;19.95;;;;;;;-1.71;98.78;100771.63;4822863;29;20489;-86
2020/12/09 02:20:47;;;;;;;42.38;19.77;;;;;;;-1.70;98.80;100772.50;4816129;29;20500;-86
2020/12/09 02:23:16;;;;;;;41.88;20.85;;;;;;;-1.73;98.61;100773.47;4837588;29;20110;-85
2020/12/09 02:25:45;;;;;;;42.65;21.25;;;;;;;-1.81;98.58;100771.16;4829947;29;20128;-86
2020/12/09 02:28:14;;;;;;;;;;;;;;;-1.89;98.43;100773.19;4811041;29;20046;-86
2020/12/09 02:30:39;;;;;;;43.03;20.40;;;;;;;-1.85;98.98;100785.38;4821205;29;19927;-86
2020/12/09 02:33:10;;;;;;;44.17;21.15;;;;;;;-1.79;98.85;100773.72;4817882;29;20492;-86
2020/12/09 02:35:36;;;;;;;50.63;22.20;;;;;;;-1.76;98.89;100774.44;4829864;29;20049;-86
2020/12/09 02:38:02;;;;;;;51.83;23.38;;;;;;;-1.65;98.73;100775.81;4827955;29;20038;-86
2020/12/09 02:40:31;;;;;;;55.78;22.77;;;;;;;-1.59;98.74;100780.84;4821071;29;20056;-86
2020/12/09 02:42:59;;;;;;;61.03;24.45;;;;;;;-1.61;99.00;100783.53;4808910;29;20474;-87
2020/12/09 02:45:33;;;;;;;109.93;29.83;;;;;;;-1.52;99.06;100777.03;4831991;29;20484;-87
2020/12/09 02:48:02;;;;;;;189.38;31.48;;;;;;;-1.42;99.57;100781.03;4824853;29;20050;-86
2020/12/09 02:50:30;;;;;;;109.35;29.08;;;;;;;-1.42;99.59;100778.41;4810380;29;20086;-86
2020/12/09 02:53:04;;;;;;;166.60;32.30;;;;;;;-1.45;99.70;100772.38;4813345;29;20121;-86
2020/12/09 02:55:37;;;;;;;67.63;26.27;;;;;;;-1.34;99.52;100769.31;4835515;29;20042;-87
2020/12/09 02:58:17;;;;;;;191.43;32.78;;;;;;;-1.30;99.69;100770.91;4826512;29;20046;-87
2020/12/09 03:00:52;;;;;;;99.07;26.33;;;;;;;-1.28;99.52;100775.22;4828517;29;20061;-87
2020/12/09 03:03:23;;;;;;;89.72;26.45;;;;;;;-1.35;99.98;100788.72;4802025;29;20046;-86
2020/12/09 03:05:56;;;;;;;187.10;31.27;;;;;;;-1.33;99.83;100778.97;4810399;29;20050;-86
2020/12/09 03:08:27;;;;;;;153.30;28.13;;;;;;;-1.38;99.68;100778.28;4824120;29;20046;-86
2020/12/09 03:11:01;;;;;;;105.30;25.88;;;;;;;-1.35;99.93;100783.44;4833089;29;20037;-87
2020/12/09 03:13:43;;;;;;;143.60;29.88;;;;;;;-1.40;100.00;100788.88;4819864;29;20038;-86
2020/12/09 03:16:11;;;;;;;104.07;25.73;;;;;;;-1.37;99.94;100795.84;4825645;29;20449;-87
2020/12/09 03:18:39;;;;;;;74.50;25.88;;;;;;;-1.36;100.00;100798.41;4822065;29;20043;-87
2020/12/09 03:21:08;;;;;;;93.25;28.95;;;;;;;-1.38;99.97;100796.75;4819193;29;20133;-86
2020/12/09 03:23:45;;;;;;;91.82;26.77;;;;;;;-1.27;100.00;100797.19;4817328;29;20531;-86
2020/12/09 03:26:11;;;;;;;80.47;26.38;;;;;;;-1.25;99.69;100792.72;4823607;29;20047;-86
2020/12/09 03:28:39;;;;;;;60.85;24.85;;;;;;;-1.22;100.00;100800.53;4808198;29;20125;-87
2020/12/09 03:31:11;;;;;;;61.47;25.20;;;;;;;-1.15;99.85;100791.44;4819279;29;20046;-87
2020/12/09 03:33:41;;;;;;;88.72;26.45;;;;;;;-1.33;99.99;100792.16;4828332;29;20049;-87
2020/12/09 03:36:09;;;;;;;75.28;26.10;;;;;;;-1.29;99.98;100785.84;4832033;29;20057;-87
2020/12/09 03:38:58;;;;;;;168.52;30.77;;;;;;;-1.39;99.67;100802.97;4820720;29;20491;-87
2020/12/09 03:41:32;;;;;;;133.60;29.38;;;;;;;-1.43;99.59;100807.50;4830122;29;20077;-86
2020/12/09 03:43:57;;;;;;;108.38;27.90;;;;;;;-1.46;100.00;100803.22;4820250;29;20050;-87
2020/12/09 03:46:27;;;;;;;115.80;27.77;;;;;;;-1.38;100.00;100809.94;4821761;29;20042;-86
2020/12/09 03:48:56;;;;;;;156.70;30.27;;;;;;;-1.37;99.94;100816.97;4838087;29;21016;-86
2020/12/09 03:51:31;;;;;;;87.15;27.05;;;;;;;-1.51;99.77;100809.59;4824424;29;20041;-87
2020/12/09 03:54:03;;;;;;;79.80;26.48;;;;;;;-1.49;99.71;100810.38;4811811;29;20150;-87
2020/12/09 03:56:31;;;;;;;222.63;34.15;;;;;;;-1.50;99.73;100816.56;4811601;29;20030;-87
2020/12/09 03:59:05;;;;;;;125.07;27.70;;;;;;;-1.47;100.00;100814.69;4812212;29;20625;-87
2020/12/09 04:01:39;;;;;;;187.85;34.20;;;;;;;-1.51;100.00;100821.00;4826217;29;20049;-86
2020/12/09 04:04:09;;;;;;;150.68;30.30;;;;;;;-1.45;100.00;100814.63;4832833;29;20457;-86
2020/12/09 04:06:35;;;;;;;131.07;29.85;;;;;;;-1.48;100.00;100818.25;4808341;29;20050;-86
2020/12/09 04:09:08;;;;;;;91.93;26.92;;;;;;;-1.43;100.00;100812.78;4825794;29;20053;-86
2020/12/09 04:11:36;;;;;;;127.72;29.88;;;;;;;-1.39;99.99;100813.53;4836470;29;20050;-86
2020/12/09 04:14:05;;;;;;;96.60;31.48;;;;;;;-1.42;99.92;100815.34;4815097;29;20052;-86
2020/12/09 04:16:33;;;;;;;120.47;29.20;;;;;;;-1.41;100.00;100817.09;4802320;29;20046;-86
2020/12/09 04:19:05;;;;;;;150.13;33.03;;;;;;;-1.45;100.00;100828.69;4823044;29;20404;-87
2020/12/09 04:21:38;;;;;;;204.05;34.25;;;;;;;-1.44;99.93;100819.84;4811603;29;20049;-86
2020/12/09 04:24:03;;;;;;;221.82;34.17;;;;;;;-1.47;100.00;100822.59;4819456;29;20053;-86
2020/12/09 04:26:30;;;;;;;91.10;29.27;;;;;;;-1.39;100.00;100829.38;4814922;29;20414;-86
2020/12/09 04:28:58;;;;;;;154.70;31.42;;;;;;;-1.34;100.00;100827.38;4821480;29;20049;-86
2020/12/09 04:31:26;;;;;;;170.82;33.50;;;;;;;-1.34;100.00;100827.38;4825070;29;20097;-86
2020/12/09 04:34:00;;;;;;;150.23;31.92;;;;;;;-1.34;100.00;100827.38;4813764;29;20049;-86
2020/12/09 04:36:32;;;;;;;201.57;35.75;;;;;;;-1.36;100.00;100819.53;4818461;29;20408;-86
2020/12/09 04:38:57;;;;;;;174.95;35.72;;;;;;;-1.33;100.00;100824.69;4819082;29;20055;-86
2020/12/09 04:41:25;;;;;;;176.52;37.10;;;;;;;-1.34;100.00;100827.38;4811982;29;20042;-85
2020/12/09 04:43:51;;;;;;;223.55;41.08;;;;;;;-1.33;100.00;100827.34;4815820;29;20072;-86
2020/12/09 04:46:19;;;;;;;203.68;38.95;;;;;;;-1.28;100.00;100821.84;4813359;29;20050;-86
2020/12/09 04:48:59;;;;;;;166.18;39.65;;;;;;;-1.21;100.00;100830.41;4814227;29;20046;-86
2020/12/09 04:51:43;;;;;;;145.52;38.25;;;;;;;-1.21;100.00;100823.34;4818098;29;20061;-86
2020/12/09 04:54:15;;;;;;;132.15;36.90;;;;;;;-1.21;100.00;100827.78;4825584;29;20046;-86
2020/12/09 04:56:54;;;;;;;92.63;36.10;;;;;;;-1.15;100.00;100828.41;4820020;29;20052;-86
2020/12/09 04:59:25;;;;;;;175.97;39.33;;;;;;;-1.14;100.00;100816.88;4813827;29;20381;-86
2020/12/09 05:02:13;;;;;;;165.60;41.15;;;;;;;-1.14;100.00;100823.97;4817853;29;20050;-86
2020/12/09 05:04:50;;;;;;;124.13;35.53;;;;;;;-1.14;100.00;100830.09;4812899;29;20073;-86
2020/12/09 05:07:21;;;;;;;151.98;37.33;;;;;;;-1.14;100.00;100832.75;4834734;29;20050;-86
2020/12/09 05:09:49;;;;;;;187.93;40.80;;;;;;;-1.17;100.00;100835.50;4826586;29;20045;-86
2020/12/09 05:12:19;;;;;;;155.55;36.95;;;;;;;-1.16;100.00;100831.94;4813555;29;20073;-86
2020/12/09 05:14:51;;;;;;;108.18;35.63;;;;;;;-1.19;100.00;100837.38;4806647;29;20047;-86
2020/12/09 05:17:34;;;;;;;158.40;37.83;;;;;;;-1.21;100.00;100833.91;4815254;29;20436;-85
2020/12/09 05:20:07;;;;;;;110.95;34.20;;;;;;;-1.20;100.00;100835.63;4816530;29;20377;-86
2020/12/09 05:22:33;;;;;;;134.07;38.20;;;;;;;-1.24;100.00;100839.31;4817797;29;20089;-86
2020/12/09 05:25:17;;;;;;;191.35;39.97;;;;;;;-1.26;100.00;100841.16;4823573;29;20065;-86
2020/12/09 05:27:47;;;;;;;145.95;37.78;;;;;;;-1.17;100.00;100851.34;4831388;29;20106;-86
2020/12/09 05:30:13;;;;;;;162.60;38.58;;;;;;;-1.29;100.00;100857.13;4813809;29;20129;-86
2020/12/09 05:32:59;;;;;;;146.15;38.40;;;;;;;-1.31;100.00;100859.84;4821058;29;20042;-86
2020/12/09 05:35:25;;;;;;;206.95;39.35;;;;;;;-1.39;100.00;100863.69;4814347;29;20049;-86
2020/12/09 05:38:18;;;;;;;188.35;40.03;;;;;;;-1.37;100.00;100859.19;4824866;29;20050;-86
2020/12/09 05:40:50;;;;;;;136.43;38.40;;;;;;;-1.34;100.00;100859.97;4830244;29;20057;-86
2020/12/09 05:43:19;;;;;;;176.88;40.38;;;;;;;-1.32;100.00;100862.53;4818835;29;20062;-87
2020/12/09 05:45:54;;;;;;;179.85;42.70;;;;;;;-1.32;100.00;100873.94;4815407;29;20118;-86
2020/12/09 05:48:23;;;;;;;144.00;39.08;;;;;;;-1.23;100.00;100870.09;4817122;29;20045;-87
2020/12/09 05:50:50;;;;;;;176.73;45.10;;;;;;;-1.32;100.00;100862.53;4830019;29;20077;-86
2020/12/09 05:53:21;;;;;;;225.27;43.95;;;;;;;-1.37;100.00;100867.13;4832049;29;20070;-86
2020/12/09 05:56:14;;;;;;;150.10;41.75;;;;;;;-1.31;100.00;100866.88;4824797;29;20038;-86
2020/12/09 05:58:48;;;;;;;218.88;46.67;;;;;;;-1.21;100.00;100865.59;4823267;29;20504;-86
2020/12/09 06:01:23;;;;;;;196.80;46.13;;;;;;;-1.24;100.00;100865.72;4836258;29;20526;-87
2020/12/09 06:03:56;;;;;;;281.13;51.05;;;;;;;-1.31;100.00;100858.97;4827506;29;21189;-86
2020/12/09 06:06:31;;;;;;;254.70;49.47;;;;;;;-1.28;100.00;100858.84;4824204;29;20057;-86
2020/12/09 06:09:00;;;;;;;147.90;43.72;;;;;;;-1.26;100.00;100857.00;4829901;29;20045;-87
2020/12/09 06:11:38;;;;;;;160.70;46.22;;;;;;;-1.22;100.00;100853.34;4824351;29;20092;-86
2020/12/09 06:14:04;;;;;;;311.35;54.05;;;;;;;-1.25;100.00;100861.38;4814785;29;20038;-87
2020/12/09 06:16:50;;;;;;;225.73;48.92;;;;;;;-1.20;100.00;100863.84;4804744;29;20535;-86
2020/12/09 06:19:28;;;;;;;;;;;;;;;;;;;;;
2020/12/09 06:22:05;;;;;;;189.95;44.60;;;;;;;-1.24;100.00;100865.72;4816363;29;20056;-88
2020/12/09 06:24:31;;;;;;;160.00;42.35;;;;;;;-1.19;100.00;100866.41;4819338;29;20496;-87
2020/12/09 06:26:56;;;;;;;255.90;49.05;;;;;;;-1.24;100.00;100856.03;4818459;29;20046;-86
2020/12/09 06:29:29;;;;;;;234.07;46.10;;;;;;;-1.26;100.00;100847.28;4819596;29;20039;-87
2020/12/09 06:32:07;;;;;;;171.82;44.45;;;;;;;-1.23;100.00;100851.59;4819471;29;20046;-87
2020/12/09 06:34:37;;;;;;;194.10;47.00;;;;;;;-1.21;100.00;100856.81;4816723;29;20045;-86
2020/12/09 06:37:12;;;;;;;;;;;;;;;-1.20;100.00;100855.91;4819382;29;20523;-87
2020/12/09 06:39:43;;;;;;;243.18;48.95;;;;;;;-1.25;100.00;100864.03;4822556;29;19925;-86
2020/12/09 06:42:12;;;;;;;157.85;44.88;;;;;;;-1.21;100.00;100862.94;4822457;29;20125;-87
2020/12/09 06:44:48;;;;;;;235.50;49.60;;;;;;;-1.29;100.00;100865.06;4783569;29;20138;-87
2020/12/09 06:47:16;;;;;;;235.23;51.03;;;;;;;-1.30;100.00;100872.09;4795390;29;20065;-86
2020/12/09 06:49:49;;;;;;;156.13;43.45;;;;;;;-1.25;100.00;100869.31;4792972;29;20059;-87
2020/12/09 06:52:38;;;;;;;204.60;47.95;;;;;;;-1.27;100.00;100871.97;4770436;29;20057;-87
2020/12/09 06:55:21;;;;;;;211.13;50.47;;;;;;;-1.25;100.00;100874.59;4802271;29;20146;-86
2020/12/09 06:58:28;;;;;;;205.23;48.25;;;;;;;-1.22;100.00;100890.31;4788602;29;20137;-87
2020/12/09 07:01:09;;;;;;;221.30;52.22;;;;;;;-1.19;100.00;100890.19;4754424;29;20110;-87
2020/12/09 07:03:39;;;;;;;351.75;60.65;;;;;;;-1.27;100.00;100886.97;4814736;29;20509;-87
2020/12/09 07:06:29;;;;;;;;;;;;;;;-1.27;100.00;100887.81;4774921;29;20046;-87
2020/12/09 07:09:16;;;;;;;191.50;47.72;;;;;;;-1.18;100.00;100896.31;4817265;29;19995;-87
2020/12/09 07:12:04;;;;;;;267.02;53.50;;;;;;;-1.20;100.00;100888.44;4743725;29;20047;-88
2020/12/09 07:14:56;;;;;;;205.68;50.28;;;;;;;-1.19;100.00;100900.75;4792551;29;20060;-87
2020/12/09 07:17:26;;;;;;;166.88;46.60;;;;;;;-1.16;100.00;100897.97;4767726;29;20107;-87
2020/12/09 07:19:55;;;;;;;237.68;51.15;;;;;;;-1.11;100.00;100908.38;4774956;29;20097;-87
2020/12/09 07:22:27;;;;;;;174.65;47.08;;;;;;;-1.09;100.00;100894.19;4777750;29;20641;-88
2020/12/09 07:24:57;;;;;;;218.70;50.78;;;;;;;-1.07;100.00;100900.25;4798967;29;20046;-86
2020/12/09 07:27:25;;;;;;;;;;;;;;;-1.07;100.00;100905.53;4800552;29;20035;-87
2020/12/09 07:30:05;;;;;;;277.23;52.95;;;;;;;-1.08;100.00;100902.97;4774844;29;20316;-88
2020/12/09 07:32:30;;;;;;;;;;;;;;;-1.08;100.00;100909.09;4781658;29;20516;-87
2020/12/09 07:35:05;;;;;;;219.70;51.15;;;;;;;-0.98;100.00;100916.66;4799259;29;19960;-86
2020/12/09 07:37:41;;;;;;;266.80;51.03;;;;;;;-1.10;100.00;100918.88;4785117;29;20047;-88
2020/12/09 07:40:23;;;;;;;364.35;59.25;;;;;;;-1.12;100.00;100928.66;4771934;29;20524;-87
2020/12/09 07:43:24;;;;;;;252.25;52.22;;;;;;;-1.03;100.00;100924.78;4805034;29;20063;-88
2020/12/09 07:46:03;;;;;;;319.70;56.35;;;;;;;-1.02;100.00;100923.00;4815947;29;20050;-87
2020/12/09 07:48:29;;;;;;;;;;;;;;;-0.99;100.00;100925.50;4810975;29;20530;-86
2020/12/09 07:51:00;;;;;;;270.15;53.08;;;;;;;-0.95;100.00;100919.19;4811210;29;19916;-86
2020/12/09 07:53:31;;;;;;;229.65;54.28;;;;;;;-0.91;100.00;100926.06;4809560;29;20050;-87
2020/12/09 07:56:07;;;;;;;336.08;62.40;;;;;;;-0.86;100.00;100926.75;4809803;29;20144;-87
2020/12/09 07:58:47;;;;;;;371.45;63.60;;;;;;;-0.86;100.00;100923.25;4791943;29;20085;-87
2020/12/09 08:01:47;;;;;;;351.17;61.97;;;;;;;-0.78;100.00;100934.34;4818414;29;20050;-87
2020/12/09 08:04:15;;;;;;;316.52;60.75;;;;;;;-0.81;100.00;100943.28;4818697;29;20125;-87
2020/12/09 08:06:54;;;;;;;443.83;68.45;;;;;;;-0.81;100.00;100938.00;4814493;29;20381;-87
2020/12/09 08:09:44;;;;;;;256.27;55.55;;;;;;;-0.77;100.00;100942.22;4810327;29;20038;-86
2020/12/09 08:12:38;;;;;;;313.08;59.78;;;;;;;-0.75;100.00;100948.31;4816404;29;20099;-87
2020/12/09 08:15:33;;;;;;;470.23;69.28;;;;;;;-0.72;100.00;100945.56;4803468;29;20046;-87
2020/12/09 08:18:22;;;;;;;340.17;61.50;;;;;;;-0.68;100.00;100943.63;4817033;29;20053;-86
2020/12/09 08:21:11;;;;;;;422.38;65.07;;;;;;;-0.61;100.00;100939.81;4823819;29;20058;-87
2020/12/09 08:23:42;;;;;;;384.40;70.82;;;;;;;-0.61;100.00;100949.53;4799818;29;20050;-87
2020/12/09 08:26:13;;;;;;;334.85;64.75;;;;;;;-0.57;100.00;100945.84;4813309;29;20053;-86
2020/12/09 08:29:08;;;;;;;276.05;56.67;;;;;;;-0.52;100.00;100949.16;4808048;29;20041;-87
2020/12/09 08:31:45;;;;;;;358.35;62.33;;;;;;;-0.47;100.00;100948.97;4812172;29;20053;-86
2020/12/09 08:34:24;;;;;;;376.50;69.25;;;;;;;-0.46;100.00;100945.41;4812181;29;20046;-85
2020/12/09 08:36:55;;;;;;;347.05;67.05;;;;;;;-0.39;100.00;100949.53;4810689;29;20140;-86
2020/12/09 08:39:39;;;;;;;407.63;73.63;;;;;;;-0.33;100.00;100938.69;4816039;29;20045;-86
2020/12/09 08:42:26;;;;;;;437.08;72.47;;;;;;;-0.36;100.00;100933.53;4818547;29;20057;-85
2020/12/09 08:44:52;;;;;;;450.90;76.43;;;;;;;-0.36;100.00;100937.03;4816301;29;20861;-85
2020/12/09 08:47:34;;;;;;;;;;;;;;;;;;;;;
2020/12/09 08:50:05;;;;;;;419.50;74.07;;;;;;;-0.27;100.00;100937.56;4830620;29;20050;-85
2020/12/09 08:52:33;;;;;;;460.58;77.35;;;;;;;-0.23;100.00;100933.88;4824570;29;20106;-85
2020/12/09 08:55:21;;;;;;;342.40;70.65;;;;;;;-0.18;100.00;100937.16;4839758;29;20430;-86
2020/12/09 08:58:36;;;;;;;408.80;72.40;;;;;;;-0.13;100.00;100943.13;4831659;29;20050;-86
2020/12/09 09:01:17;;;;;;;424.10;72.75;;;;;;;-0.17;100.00;100943.34;4824518;29;22080;-86
2020/12/09 09:03:45;;;;;;;479.90;76.40;;;;;;;-0.14;100.00;100932.63;4809348;29;20048;-85
2020/12/09 09:43:25;;;;;;;363.27;68.20;;;;;;;0.06;100.00;100924.69;4768158;29;20054;-88
2020/12/09 09:53:59;;;;;;;329.58;66.13;;;;;;;-0.02;100.00;100935.56;4663399;30;20045;-87
2020/12/09 09:56:38;;;;;;;354.85;67.30;;;;;;;-0.04;100.00;100924.22;4673167;30;20045;-86
2020/12/09 09:59:48;;;;;;;297.92;61.80;;;;;;;-0.08;100.00;100927.06;4719002;30;20040;-87
2020/12/09 10:02:16;;;;;;;364.20;69.72;;;;;;;-0.13;100.00;100935.19;4735925;30;20052;-87
2020/12/09 10:04:45;;;;;;;331.42;65.57;;;;;;;-0.15;100.00;100942.31;4784810;29;20053;-87
2020/12/09 10:07:27;;;;;;;298.77;64.32;;;;;;;-0.19;100.00;100931.03;4818903;29;20098;-87
2020/12/09 10:09:58;;;;;;;302.63;62.25;;;;;;;-0.20;100.00;100929.31;4834651;29;20043;-86
2020/12/09 10:12:41;;;;;;;440.02;70.32;;;;;;;-0.11;100.00;100922.75;4835316;29;20097;-87
2020/12/09 10:15:14;;;;;;;294.17;66.32;;;;;;;0.00;100.00;100930.25;4826750;29;20053;-87
2020/12/09 10:17:51;;;;;;;295.25;61.05;;;;;;;0.13;100.00;100931.44;4813737;29;20195;-87
2020/12/09 10:20:25;;;;;;;281.95;59.42;;;;;;;0.21;100.00;100931.09;4816727;29;20061;-87
2020/12/09 10:22:55;;;;;;;277.27;60.85;;;;;;;0.11;100.00;100924.47;4832954;29;20081;-87
2020/12/09 10:25:33;;;;;;;295.20;62.47;;;;;;;0.10;100.00;100926.25;4798387;29;20183;-86
2020/12/09 10:28:02;;;;;;;264.65;62.92;;;;;;;0.07;100.00;100922.88;4805573;29;20060;-86
2020/12/09 10:30:40;;;;;;;311.15;61.10;;;;;;;-0.09;100.00;100920.91;4820695;29;20463;-85
2020/12/09 10:33:30;;;;;;;315.20;57.42;;;;;;;-0.06;100.00;100920.78;4816206;29;20137;-86
2020/12/09 10:36:05;;;;;;;325.65;58.90;;;;;;;-0.03;100.00;100915.34;4813400;29;20041;-86
2020/12/09 10:38:33;;;;;;;249.52;56.78;;;;;;;0.04;100.00;100921.22;4794315;29;20042;-86
2020/12/09 10:41:05;;;;;;;233.00;51.87;;;;;;;-0.15;100.00;100912.38;4827325;29;20046;-87
2020/12/09 10:43:38;;;;;;;318.33;59.13;;;;;;;-0.34;100.00;100917.59;4791530;29;20054;-87
2020/12/09 10:46:18;;;;;;;274.98;56.35;;;;;;;-0.30;100.00;100913.91;4808296;29;20058;-86
2020/12/09 10:48:46;;;;;;;252.68;50.72;;;;;;;-0.24;100.00;100917.13;4810569;29;20050;-86
2020/12/09 10:51:17;;;;;;;236.00;50.45;;;;;;;-0.56;100.00;100922.00;4818988;29;20038;-85
2020/12/09 10:53:45;;;;;;;228.73;50.35;;;;;;;-0.51;100.00;100919.16;4834579;29;20060;-86
2020/12/09 10:56:14;;;;;;;200.98;51.33;;;;;;;-0.42;100.00;100917.91;4813941;29;20916;-85
2020/12/09 10:58:51;;;;;;;226.87;51.17;;;;;;;-0.36;100.00;100925.59;4811928;29;20038;-85
2020/12/09 11:01:30;;;;;;;314.17;56.72;;;;;;;-0.56;100.00;100927.28;4825543;29;20302;-86
2020/12/09 11:04:19;;;;;;;257.10;54.97;;;;;;;-0.48;100.00;100913.75;4813133;29;20127;-86
2020/12/09 11:06:52;;;;;;;238.73;55.35;;;;;;;-0.62;100.00;100922.25;4834149;29;20039;-86
2020/12/09 11:09:23;;;;;;;211.35;51.45;;;;;;;-0.47;100.00;100928.69;4799964;29;20038;-86
2020/12/09 11:11:55;;;;;;;199.70;50.78;;;;;;;-0.56;100.00;100919.34;4814037;29;20176;-85
2020/12/09 11:14:20;;;;;;;208.10;52.13;;;;;;;-0.52;100.00;100912.16;4800132;29;20054;-87
2020/12/09 11:17:06;;;;;;;199.00;53.47;;;;;;;-0.47;100.00;100928.69;4797238;29;20049;-86
2020/12/09 11:19:35;;;;;;;194.75;50.55;;;;;;;-0.40;100.00;100927.53;4814063;29;20506;-87
2020/12/09 11:22:10;;;;;;;199.05;51.80;;;;;;;-0.42;100.00;100933.78;4814958;29;20046;-85
2020/12/09 11:24:38;;;;;;;189.77;48.95;;;;;;;-0.54;100.00;100929.88;4820435;29;20049;-87
2020/12/09 11:27:10;;;;;;;175.18;47.97;;;;;;;-0.41;100.00;100930.22;4832257;29;20121;-86
2020/12/09 11:29:41;;;;;;;199.13;50.97;;;;;;;-0.34;100.00;100929.03;4801137;29;20046;-86
2020/12/09 11:32:09;;;;;;;159.20;49.53;;;;;;;-0.32;100.00;100913.09;4806670;29;20790;-87
2020/12/09 11:34:36;;;;;;;184.95;50.40;;;;;;;-0.21;100.00;100911.72;4819389;29;20462;-87
2020/12/09 11:37:03;;;;;;;178.48;49.95;;;;;;;-0.20;100.00;100907.28;4833719;29;20041;-85
2020/12/09 11:39:40;;;;;;;157.15;49.15;;;;;;;-0.26;100.00;100902.28;4819932;29;20050;-86
2020/12/09 11:42:19;;;;;;;147.73;46.33;;;;;;;-0.20;100.00;100897.56;4804859;29;20050;-86
2020/12/09 11:44:48;;;;;;;150.10;46.20;;;;;;;-0.22;100.00;100901.19;4817882;29;21216;-86
2020/12/09 11:47:17;;;;;;;155.70;47.28;;;;;;;-0.08;100.00;100905.91;4812193;29;20074;-86
2020/12/09 11:50:11;;;;;;;133.25;43.28;;;;;;;-0.08;100.00;100900.59;4830380;29;20471;-87
2020/12/09 11:52:43;;;;;;;161.20;45.65;;;;;;;-0.08;100.00;100896.16;4801981;29;20042;-86
2020/12/09 11:55:15;;;;;;;149.35;45.75;;;;;;;0.03;100.00;100902.78;4823798;29;20053;-87
2020/12/09 11:57:47;;;;;;;140.88;46.08;;;;;;;0.11;100.00;100906.81;4836292;29;20057;-86
2020/12/09 12:00:27;;;;;;;138.85;43.92;;;;;;;-0.06;100.00;100904.03;4829722;29;20046;-86
2020/12/09 12:02:55;;;;;;;134.57;42.97;;;;;;;0.00;100.00;100903.78;4806759;29;23274;-87
2020/12/09 12:05:33;;;;;;;148.30;43.72;;;;;;;0.08;100.00;100914.03;4810422;29;20122;-86
2020/12/09 12:08:07;;;;;;;134.15;43.30;;;;;;;-0.04;100.00;100910.13;4830189;29;20088;-86
2020/12/09 12:10:44;;;;;;;134.57;43.90;;;;;;;-0.12;100.00;100912.25;4827425;29;20145;-86
2020/12/09 12:13:13;;;;;;;119.65;41.60;;;;;;;-0.07;100.00;100903.19;4803404;29;20045;-86
2020/12/09 12:15:44;;;;;;;133.15;43.42;;;;;;;-0.14;100.00;100907.03;4811508;29;20069;-86
2020/12/09 12:18:13;;;;;;;117.95;39.78;;;;;;;0.03;100.00;100902.78;4828527;29;20088;-91
2020/12/09 12:20:39;;;;;;;128.35;44.63;;;;;;;-0.08;100.00;100898.81;4819907;29;20098;-85